Time;durP1;ratioP1;P1;durP2;ratioP2;P2;SDS_P1;SDS_P2;PMS_P1;PMS_P2;Temp;Humidity;BMP_temperature;BMP_pressure;BME280_temperature;BME280_humidity;BME280_pressure;Samples;Min_cycle;Max_cycle;Signal;HPM_P1;HPM_P2
2023/02/05 00:02:11;;;;;;;10.70;7.70;;;;;;;7.78;100.00;103728.88;5016036;28;20045;-72
2023/02/05 00:04:36;;;;;;;11.05;7.35;;;;;;;7.78;100.00;103728.00;5041897;28;20056;-72
2023/02/05 00:07:03;;;;;;;12.23;7.68;;;;;;;7.79;100.00;103719.34;5040832;28;20037;-72
2023/02/05 00:09:28;;;;;;;14.85;10.05;;;;;;;7.75;100.00;103718.41;5036461;28;20300;-72
2023/02/05 00:11:54;;;;;;;11.57;8.90;;;;;;;7.72;100.00;103717.47;5037982;28;20108;-72
2023/02/05 00:14:20;;;;;;;11.00;8.45;;;;;;;7.72;100.00;103710.53;5051220;28;20241;-72
2023/02/05 00:16:46;;;;;;;16.73;9.73;;;;;;;7.67;100.00;103705.19;5040259;28;20049;-72
2023/02/05 00:19:11;;;;;;;11.48;8.73;;;;;;;7.65;100.00;103716.47;5054467;28;20240;-72
2023/02/05 00:21:37;;;;;;;11.10;7.90;;;;;;;7.64;100.00;103715.59;5047411;28;20275;-72
2023/02/05 00:24:03;;;;;;;11.50;8.02;;;;;;;7.65;100.00;103708.66;5037012;28;20049;-72
2023/02/05 00:26:28;;;;;;;7.88;6.30;;;;;;;7.66;100.00;103711.28;5035865;28;20395;-72
2023/02/05 00:28:53;;;;;;;11.93;8.30;;;;;;;7.63;100.00;103721.66;5049949;28;20045;-72
2023/02/05 00:31:20;;;;;;;10.98;7.85;;;;;;;7.63;100.00;103721.66;5047576;28;20041;-72
2023/02/05 00:33:47;;;;;;;10.40;8.20;;;;;;;7.64;100.00;103712.09;5036625;28;20029;-72
2023/02/05 00:36:13;;;;;;;10.23;6.93;;;;;;;7.65;100.00;103712.13;5041917;28;20263;-72
2023/02/05 00:38:39;;;;;;;7.18;6.00;;;;;;;7.67;100.00;103718.25;5055554;28;20056;-72
2023/02/05 00:41:05;;;;;;;10.98;6.78;;;;;;;7.67;100.00;103723.47;5054675;28;20112;-72
2023/02/05 00:43:30;;;;;;;7.25;5.65;;;;;;;7.69;100.00;103720.88;5055766;28;20033;-72
2023/02/05 00:45:55;;;;;;;7.38;5.40;;;;;;;7.68;100.00;103727.84;5051029;28;20045;-72
2023/02/05 00:48:21;;;;;;;6.13;5.05;;;;;;;7.69;100.00;103733.94;5035817;28;20037;-72
2023/02/05 00:50:49;;;;;;;6.75;5.25;;;;;;;7.68;100.00;103725.25;5038464;28;20041;-72
2023/02/05 00:53:15;;;;;;;7.60;5.77;;;;;;;7.67;100.00;103733.91;5055672;28;20036;-72
2023/02/05 00:55:41;;;;;;;6.45;5.20;;;;;;;7.67;100.00;103739.13;5054195;28;20033;-72
2023/02/05 00:58:06;;;;;;;10.88;6.55;;;;;;;7.67;100.00;103731.28;5035873;28;20238;-72
2023/02/05 01:00:32;;;;;;;10.18;7.22;;;;;;;7.66;100.00;103734.75;5035506;28;20375;-72
2023/02/05 01:02:58;;;;;;;8.05;6.50;;;;;;;7.65;100.00;103730.38;5055438;28;20082;-72
2023/02/05 01:05:24;;;;;;;8.90;7.07;;;;;;;7.62;100.00;103714.72;5055422;28;20257;-72
2023/02/05 01:07:49;;;;;;;8.07;6.63;;;;;;;7.59;100.00;103725.06;5037396;28;20056;-72
2023/02/05 01:10:15;;;;;;;9.27;6.18;;;;;;;7.60;100.00;103729.41;5037266;28;20037;-72
2023/02/05 01:12:40;;;;;;;8.25;6.78;;;;;;;7.60;100.00;103721.59;5037696;28;20356;-72
2023/02/05 01:15:07;;;;;;;9.90;7.28;;;;;;;7.61;100.00;103736.41;5036126;28;20116;-72
2023/02/05 01:17:33;;;;;;;9.43;6.38;;;;;;;7.61;100.00;103732.94;5017878;28;20230;-72
2023/02/05 01:19:58;;;;;;;8.25;6.88;;;;;;;7.60;100.00;103725.94;5050440;28;20037;-72
2023/02/05 01:22:24;;;;;;;9.75;6.97;;;;;;;7.60;100.00;103728.56;5039741;28;20053;-72
2023/02/05 01:24:49;;;;;;;17.67;9.70;;;;;;;7.54;100.00;103726.72;5036020;28;20041;-72
2023/02/05 01:27:14;;;;;;;12.93;7.88;;;;;;;7.52;100.00;103722.34;5035390;28;20361;-72
2023/02/05 01:29:40;;;;;;;14.93;8.88;;;;;;;7.49;100.00;103728.34;5035989;28;20225;-72
2023/02/05 01:32:05;;;;;;;18.48;10.77;;;;;;;7.45;100.00;103718.72;5039016;28;20041;-72
2023/02/05 01:34:31;;;;;;;16.50;9.93;;;;;;;7.41;100.00;103733.44;5045848;28;20041;-72
2023/02/05 01:36:56;;;;;;;16.30;9.52;;;;;;;7.38;100.00;103746.41;5019175;28;20049;-72
2023/02/05 01:39:22;;;;;;;11.73;7.75;;;;;;;7.40;100.00;103746.44;5034520;28;20064;-72
2023/02/05 01:41:47;;;;;;;12.77;8.30;;;;;;;7.41;100.00;103751.69;5035176;28;20272;-72
2023/02/05 01:44:23;;;;;;;12.88;7.80;;;;;;;7.42;100.00;103734.31;5040442;28;20323;-72
2023/02/05 01:46:50;;;;;;;14.05;7.35;;;;;;;7.43;100.00;103731.72;5046401;28;20034;-72
2023/02/05 01:49:29;;;;;;;9.82;7.20;;;;;;;7.43;100.00;103726.50;5035254;28;20287;-72
2023/02/05 01:51:58;;;;;;;8.98;6.30;;;;;;;7.44;100.00;103716.97;5043546;28;20049;-72
2023/02/05 01:54:27;;;;;;;8.77;6.40;;;;;;;7.44;100.00;103723.06;5036221;28;20029;-72
2023/02/05 01:56:59;;;;;;;7.60;5.90;;;;;;;7.44;100.00;103716.97;5036715;28;20331;-72
2023/02/05 01:59:27;;;;;;;6.35;5.55;;;;;;;7.42;100.00;103709.13;5048617;28;20020;-72
2023/02/05 02:05:01;;;;;;;5.85;4.88;;;;;;;7.47;100.00;103720.50;5043693;28;20303;-72
2023/02/05 02:07:26;;;;;;;5.60;4.55;;;;;;;7.42;100.00;103721.25;5037670;28;20056;-72
2023/02/05 02:09:53;;;;;;;6.40;4.10;;;;;;;7.34;100.00;103708.09;5051326;28;20041;-72
2023/02/05 02:12:22;;;;;;;6.25;3.97;;;;;;;7.34;100.00;103699.41;5044780;28;20037;-72
2023/02/05 02:14:51;;;;;;;6.78;3.63;;;;;;;7.33;100.00;103690.72;5037534;28;20037;-72
2023/02/05 02:17:18;;;;;;;;;;;;;;;7.34;100.00;103684.63;5036723;28;20264;-72
2023/02/05 02:20:04;;;;;;;4.18;2.45;;;;;;;7.31;100.00;103674.13;5054143;28;19940;-72
2023/02/05 02:22:54;;;;;;;3.03;1.63;;;;;;;7.28;100.00;103674.09;5043867;28;20049;-72
2023/02/05 02:25:54;;;;;;;3.13;1.73;;;;;;;7.24;100.00;103667.06;5024825;28;20146;-72
2023/02/05 02:28:44;;;;;;;3.42;2.00;;;;;;;7.18;100.00;103662.59;5040329;28;20106;-72
2023/02/05 02:31:16;;;;;;;7.40;1.85;;;;;;;7.14;100.00;103650.38;5055817;28;20116;-72
2023/02/05 02:33:56;;;;;;;3.92;1.40;;;;;;;7.10;99.78;103654.66;5054403;28;20064;-72
2023/02/05 02:36:32;;;;;;;6.03;1.95;;;;;;;7.07;99.69;103649.38;5041277;28;20032;-72
2023/02/05 02:39:14;;;;;;;5.82;1.88;;;;;;;7.05;99.70;103661.50;5037083;28;20289;-72
2023/02/05 02:41:49;;;;;;;4.03;1.77;;;;;;;7.03;100.00;103652.78;5049280;28;20041;-72
2023/02/05 02:44:22;;;;;;;9.63;2.13;;;;;;;7.02;100.00;103658.84;5036021;28;20383;-72
2023/02/05 02:46:50;;;;;;;3.58;1.70;;;;;;;7.05;100.00;103647.59;5036819;28;20048;-72
2023/02/05 02:49:26;;;;;;;7.50;3.17;;;;;;;7.02;100.00;103643.22;5037368;28;20228;-72
2023/02/05 02:51:54;;;;;;;4.85;2.45;;;;;;;7.00;100.00;103642.28;5039029;28;20049;-72
2023/02/05 02:54:21;;;;;;;5.45;2.35;;;;;;;6.97;100.00;103660.50;5053215;28;20029;-72
2023/02/05 02:56:50;;;;;;;3.03;1.85;;;;;;;6.99;100.00;103657.91;5055783;28;20063;-72
2023/02/05 02:59:19;;;;;;;2.97;2.17;;;;;;;7.00;100.00;103670.06;5040095;28;20044;-72
2023/02/05 03:01:49;;;;;;;7.93;2.42;;;;;;;7.04;100.00;103658.84;5040395;28;20056;-72
2023/02/05 03:04:21;;;;;;;4.80;2.40;;;;;;;7.07;100.00;103657.19;5047895;28;20144;-72
2023/02/05 03:06:50;;;;;;;7.88;2.65;;;;;;;7.08;100.00;103652.88;5044190;28;20378;-72
2023/02/05 03:09:42;;;;;;;5.65;2.40;;;;;;;7.07;100.00;103653.72;5039630;28;20370;-72
2023/02/05 03:12:07;;;;;;;10.20;3.15;;;;;;;7.05;100.00;103663.25;5048476;28;20029;-72
2023/02/05 03:14:34;;;;;;;13.18;3.72;;;;;;;7.05;100.00;103671.91;5040028;28;20108;-72
2023/02/05 03:16:59;;;;;;;12.68;3.20;;;;;;;7.06;100.00;103672.81;5040086;28;20049;-72
2023/02/05 03:19:25;;;;;;;6.90;3.17;;;;;;;7.06;100.00;103681.50;5042377;28;20053;-72
2023/02/05 03:21:55;;;;;;;10.32;3.53;;;;;;;7.04;100.00;103672.78;5056452;28;20371;-72
2023/02/05 03:24:21;;;;;;;9.60;3.83;;;;;;;7.03;100.00;103672.75;5040245;28;20356;-72
2023/02/05 03:26:46;;;;;;;8.63;4.00;;;;;;;7.02;100.00;103687.53;5039959;28;20029;-72
2023/02/05 03:29:14;;;;;;;8.52;4.22;;;;;;;7.03;100.00;103680.56;5039945;28;20033;-72
2023/02/05 03:32:01;;;;;;;11.88;4.50;;;;;;;7.04;100.00;103671.88;5058059;28;20060;-72
2023/02/05 03:34:38;;;;;;;9.60;4.68;;;;;;;7.03;100.00;103683.19;5040283;28;20041;-72
2023/02/05 03:37:41;;;;;;;11.57;4.72;;;;;;;6.98;100.00;103677.84;5039702;28;20037;-72
2023/02/05 03:40:52;;;;;;;11.98;4.55;;;;;;;6.95;100.00;103688.25;5044470;28;20052;-72
2023/02/05 03:43:48;;;;;;;15.85;4.68;;;;;;;6.91;100.00;103675.97;5003065;28;20049;-72
2023/02/05 03:46:24;;;;;;;12.43;5.05;;;;;;;6.90;100.00;103672.50;5023512;28;20029;-72
2023/02/05 03:49:08;;;;;;;9.52;4.78;;;;;;;6.88;100.00;103670.72;5040692;28;20040;-72
2023/02/05 03:52:02;;;;;;;14.15;4.80;;;;;;;6.85;100.00;103670.66;5044748;28;20090;-72
2023/02/05 03:54:43;;;;;;;5.32;4.38;;;;;;;6.82;100.00;103676.69;5033294;28;20043;-72
2023/02/05 03:57:19;;;;;;;8.48;5.07;;;;;;;6.83;100.00;103693.19;5053975;28;20063;-72
2023/02/05 03:59:47;;;;;;;8.73;4.93;;;;;;;6.82;100.00;103683.63;5039845;28;20045;-72
2023/02/05 04:02:13;;;;;;;6.43;5.27;;;;;;;6.81;100.00;103694.91;5044786;28;20195;-72
2023/02/05 04:04:38;;;;;;;7.90;5.18;;;;;;;6.82;100.00;103694.94;5058287;28;20090;-72
2023/02/05 04:07:04;;;;;;;10.48;5.38;;;;;;;6.83;100.00;103690.59;5051140;28;20041;-72
2023/02/05 04:09:29;;;;;;;10.93;5.20;;;;;;;6.84;100.00;103682.81;5040131;28;20037;-72
2023/02/05 04:11:55;;;;;;;9.32;5.43;;;;;;;6.87;100.00;103692.41;5021557;28;20069;-72
2023/02/05 04:14:20;;;;;;;12.40;5.47;;;;;;;6.87;100.00;103692.41;5039398;28;20029;-72
2023/02/05 04:16:45;;;;;;;7.25;5.03;;;;;;;6.88;100.00;103694.19;5045478;28;20025;-72
2023/02/05 04:19:11;;;;;;;7.85;5.70;;;;;;;6.89;100.00;103698.53;5039030;28;20415;-72
2023/02/05 04:21:36;;;;;;;7.50;5.70;;;;;;;6.89;100.00;103701.13;5038773;28;20356;-72
2023/02/05 04:24:02;;;;;;;8.70;5.40;;;;;;;6.86;100.00;103701.09;5040032;28;20368;-72
2023/02/05 04:26:27;;;;;;;5.63;4.95;;;;;;;6.85;100.00;103701.91;5055227;28;20029;-72
2023/02/05 04:28:52;;;;;;;6.50;4.57;;;;;;;6.84;100.00;103701.06;5041781;28;20061;-72
2023/02/05 04:31:18;;;;;;;5.57;3.95;;;;;;;6.87;100.00;103710.66;5038431;28;20336;-72
2023/02/05 04:33:43;;;;;;;6.50;3.40;;;;;;;6.88;100.00;103712.41;5038625;28;20103;-72
2023/02/05 04:36:09;;;;;;;3.80;2.05;;;;;;;6.87;100.00;103716.72;5050972;28;20167;-72
2023/02/05 04:38:34;;;;;;;3.22;2.10;;;;;;;6.86;100.00;103719.31;5038137;28;20045;-72
2023/02/05 04:41:00;;;;;;;2.40;1.80;;;;;;;6.88;100.00;103717.63;5032662;28;20036;-72
2023/02/05 04:43:25;;;;;;;4.47;2.17;;;;;;;6.84;100.00;103713.19;5042093;28;20087;-72
2023/02/05 04:45:51;;;;;;;3.30;1.40;;;;;;;6.82;100.00;103736.63;5038899;28;20041;-72
2023/02/05 04:48:17;;;;;;;3.92;1.30;;;;;;;6.82;100.00;103738.31;5040571;28;20049;-72
2023/02/05 04:50:42;;;;;;;7.25;1.27;;;;;;;6.78;100.00;103750.41;5038750;28;20061;-72
2023/02/05 04:53:09;;;;;;;8.07;1.30;;;;;;;6.75;100.00;103745.16;5022304;28;20045;-72
2023/02/05 04:55:34;;;;;;;11.50;1.88;;;;;;;6.70;100.00;103746.75;5037928;28;20106;-72
2023/02/05 04:58:00;;;;;;;5.65;1.10;;;;;;;6.69;100.00;103750.19;5038802;28;20097;-72
2023/02/05 05:00:26;;;;;;;9.68;1.23;;;;;;;6.68;100.00;103762.34;5037994;28;20360;-72
2023/02/05 05:02:52;;;;;;;6.78;1.17;;;;;;;6.66;100.00;103760.56;5039380;28;20033;-72
2023/02/05 05:05:18;;;;;;;10.48;1.63;;;;;;;6.63;100.00;103766.56;5037743;28;20406;-72
2023/02/05 05:07:43;;;;;;;17.95;1.58;;;;;;;6.59;100.00;103767.34;5041694;28;20373;-72
2023/02/05 05:10:10;;;;;;;10.10;1.35;;;;;;;6.60;100.00;103776.03;5038405;28;20224;-72
2023/02/05 05:12:36;;;;;;;14.40;1.85;;;;;;;6.56;100.00;103772.47;5037508;28;20099;-72
2023/02/05 05:15:05;;;;;;;14.50;2.10;;;;;;;6.51;100.00;103784.50;5037602;28;20041;-72
2023/02/05 05:17:31;;;;;;;11.50;1.15;;;;;;;6.47;100.00;103793.09;5042855;28;20361;-72
2023/02/05 05:19:57;;;;;;;11.18;1.30;;;;;;;6.46;100.00;103810.44;5038087;28;20067;-72
2023/02/05 05:22:22;;;;;;;9.93;2.03;;;;;;;6.44;100.00;103808.63;5037039;28;20108;-72
2023/02/05 05:24:48;;;;;;;20.55;2.72;;;;;;;6.35;100.00;103811.91;5037969;28;20041;-73
2023/02/05 05:27:13;;;;;;;8.45;1.92;;;;;;;6.33;100.00;103811.88;5042150;28;20044;-72
2023/02/05 05:29:38;;;;;;;10.52;1.45;;;;;;;6.31;100.00;103805.75;5056553;28;20071;-72
2023/02/05 05:32:04;;;;;;;8.52;1.58;;;;;;;6.27;100.00;103806.50;5037186;28;20275;-72
2023/02/05 05:34:29;;;;;;;13.88;2.58;;;;;;;6.22;99.75;103828.06;5037296;28;20045;-72
2023/02/05 05:36:55;;;;;;;16.55;1.60;;;;;;;6.19;98.82;103805.44;5037812;28;20340;-72
2023/02/05 05:44:51;;;;;;;9.43;1.08;;;;;;;6.09;96.93;103827.75;5055917;28;20143;-72
2023/02/05 05:47:17;;;;;;;15.13;1.35;;;;;;;6.06;96.64;103819.00;5052431;28;20139;-72
2023/02/05 05:49:42;;;;;;;11.75;1.40;;;;;;;6.04;96.74;103807.66;5054793;28;20041;-72
2023/02/05 05:52:08;;;;;;;9.02;1.80;;;;;;;5.99;96.36;103823.16;5052695;28;20088;-72
2023/02/05 05:54:34;;;;;;;10.70;1.60;;;;;;;5.98;96.75;103817.91;5036710;28;20029;-72
2023/02/05 05:56:59;;;;;;;7.10;1.08;;;;;;;5.95;96.34;103822.19;5021750;28;20044;-72
2023/02/05 05:59:24;;;;;;;9.98;1.55;;;;;;;5.98;96.98;103834.38;5050508;28;20140;-72
2023/02/05 06:01:50;;;;;;;13.80;1.23;;;;;;;5.99;97.00;103840.50;5037692;28;20045;-72
2023/02/05 06:04:15;;;;;;;10.40;2.63;;;;;;;5.93;95.98;103829.03;5036467;28;20544;-71
2023/02/05 06:06:41;;;;;;;18.13;2.22;;;;;;;5.94;95.65;103848.13;5054460;28;20098;-72
2023/02/05 06:09:06;;;;;;;11.35;1.38;;;;;;;5.94;95.54;103843.78;5043720;28;20116;-72
2023/02/05 06:11:32;;;;;;;10.95;1.90;;;;;;;5.95;95.81;103835.19;5036926;28;20061;-71
2023/02/05 06:13:57;;;;;;;14.63;1.70;;;;;;;5.94;95.47;103833.38;5040688;28;20577;-72
2023/02/05 06:16:22;;;;;;;10.73;1.60;;;;;;;5.93;95.04;103847.25;5036694;28;20041;-72
2023/02/05 06:18:48;;;;;;;11.52;1.85;;;;;;;5.93;94.09;103851.56;5037251;28;20033;-72
2023/02/05 06:21:13;;;;;;;15.23;1.58;;;;;;;5.95;93.42;103870.72;5037419;28;20025;-72
2023/02/05 06:23:38;;;;;;;9.20;1.45;;;;;;;5.94;93.86;103867.22;5039509;28;20045;-71
2023/02/05 06:26:04;;;;;;;9.43;1.33;;;;;;;5.95;94.46;103868.09;5051451;28;20391;-71
2023/02/05 06:28:29;;;;;;;13.98;1.52;;;;;;;5.94;95.00;103869.81;5045969;28;20070;-72
2023/02/05 06:30:54;;;;;;;7.30;1.50;;;;;;;5.94;95.13;103874.13;5036890;28;20040;-72
2023/02/05 06:33:20;;;;;;;13.90;2.60;;;;;;;5.92;95.71;103878.41;5038428;28;20048;-72
2023/02/05 06:35:45;;;;;;;13.63;1.73;;;;;;;5.90;95.47;103880.97;5036837;28;20044;-72
2023/02/05 06:38:10;;;;;;;19.58;1.98;;;;;;;5.93;95.40;103893.19;5036835;28;20040;-72
2023/02/05 06:40:36;;;;;;;13.02;1.35;;;;;;;5.92;95.45;103896.63;5036278;28;20105;-72
2023/02/05 06:43:02;;;;;;;20.50;2.50;;;;;;;5.91;94.50;103906.16;5037683;28;20037;-71
2023/02/05 06:45:27;;;;;;;10.65;2.22;;;;;;;5.90;94.19;103911.31;5036485;28;20044;-72
2023/02/05 06:47:55;;;;;;;14.70;2.03;;;;;;;5.90;94.05;103908.72;5020540;28;20045;-72
2023/02/05 06:50:21;;;;;;;13.40;1.98;;;;;;;5.89;93.95;103910.41;5035943;28;20434;-72
2023/02/05 06:52:47;;;;;;;11.10;1.60;;;;;;;5.92;94.25;103946.06;5036824;28;20072;-72
2023/02/05 06:55:12;;;;;;;13.63;3.00;;;;;;;5.93;94.10;103929.59;5018881;28;20045;-72
2023/02/05 06:57:37;;;;;;;23.77;2.58;;;;;;;5.92;93.89;103939.13;5038827;28;20112;-71
2023/02/05 07:00:04;;;;;;;16.98;1.52;;;;;;;5.90;93.43;103934.72;5040370;28;20272;-72
2023/02/05 07:02:30;;;;;;;16.48;1.70;;;;;;;5.92;93.79;103940.84;5054947;28;20041;-72
2023/02/05 07:04:56;;;;;;;17.38;2.60;;;;;;;5.92;93.62;103936.53;5036112;28;20065;-72
2023/02/05 07:07:21;;;;;;;13.38;1.55;;;;;;;5.94;94.02;103944.38;5035958;28;20048;-72
2023/02/05 07:09:46;;;;;;;13.57;2.00;;;;;;;5.95;94.43;103962.66;5054764;28;20084;-71
2023/02/05 07:12:12;;;;;;;24.48;2.83;;;;;;;5.96;94.06;103964.41;5056317;28;20041;-71
2023/02/05 07:14:38;;;;;;;15.52;2.00;;;;;;;5.96;93.88;103971.34;5000874;28;20037;-71
2023/02/05 07:17:04;;;;;;;24.05;2.95;;;;;;;5.95;94.06;103969.56;5052603;28;20379;-72
2023/02/05 07:19:29;;;;;;;16.30;2.67;;;;;;;5.93;94.16;103977.31;5035689;28;20096;-71
2023/02/05 07:21:55;;;;;;;14.18;2.80;;;;;;;5.94;94.10;103981.66;5037562;28;20371;-72
2023/02/05 07:24:20;;;;;;;21.60;2.45;;;;;;;5.94;93.95;103981.66;5044741;28;20124;-71
2023/02/05 07:26:45;;;;;;;14.35;2.20;;;;;;;5.93;93.96;103992.03;5036630;28;20235;-71
2023/02/05 07:29:11;;;;;;;22.38;2.95;;;;;;;5.91;93.72;103989.41;5044819;28;20052;-72
2023/02/05 07:31:36;;;;;;;21.13;2.28;;;;;;;5.92;93.38;103993.75;5053735;28;20118;-72
2023/02/05 07:34:02;;;;;;;23.00;2.63;;;;;;;5.92;93.34;104003.28;5055598;28;20044;-72
2023/02/05 07:36:28;;;;;;;12.43;2.20;;;;;;;5.93;92.59;104005.94;5051141;28;20029;-71
2023/02/05 07:38:53;;;;;;;7.43;2.17;;;;;;;5.94;92.69;104012.00;5043893;28;20055;-71
2023/02/05 07:41:18;;;;;;;17.77;2.10;;;;;;;5.93;93.25;104015.44;5041651;28;20040;-71
2023/02/05 07:43:44;;;;;;;16.67;2.63;;;;;;;5.94;93.76;104020.69;5054472;28;20052;-71
2023/02/05 07:46:13;;;;;;;18.88;2.33;;;;;;;5.90;93.73;104024.06;5041845;28;20222;-72
2023/02/05 07:48:38;;;;;;;12.23;2.17;;;;;;;5.93;93.79;104024.16;5043548;28;20311;-71
2023/02/05 07:51:05;;;;;;;21.45;2.65;;;;;;;5.92;93.85;104027.56;5039601;28;20056;-72
2023/02/05 07:53:30;;;;;;;20.48;2.55;;;;;;;5.93;93.83;104029.34;5038884;28;20088;-71
2023/02/05 07:55:56;;;;;;;13.43;1.92;;;;;;;5.96;93.68;104023.38;5035504;28;20041;-71
2023/02/05 07:58:21;;;;;;;16.08;2.50;;;;;;;5.96;93.88;104020.78;5037174;28;20336;-71
2023/02/05 08:00:47;;;;;;;14.00;1.83;;;;;;;5.98;93.67;104026.03;5020569;28;20037;-72
2023/02/05 08:03:13;;;;;;;20.63;2.35;;;;;;;5.98;93.62;104033.84;5022323;28;20036;-72
2023/02/05 08:05:39;;;;;;;15.25;2.40;;;;;;;5.99;93.73;104028.69;5038765;28;20421;-72
2023/02/05 08:08:05;;;;;;;16.95;2.30;;;;;;;6.01;93.19;104036.53;5041579;28;20037;-72
2023/02/05 08:10:31;;;;;;;17.02;2.60;;;;;;;6.02;93.60;104038.28;5045460;28;20108;-72
2023/02/05 08:12:57;;;;;;;18.10;2.75;;;;;;;6.04;93.33;104044.41;5037880;28;20041;-72
2023/02/05 08:15:23;;;;;;;17.05;2.90;;;;;;;6.05;92.94;104038.38;5037389;28;20092;-72
2023/02/05 08:17:48;;;;;;;33.30;3.75;;;;;;;6.04;91.69;104041.81;5039132;28;20037;-72
2023/02/05 08:20:13;;;;;;;21.88;3.50;;;;;;;6.03;91.83;104046.13;5040137;28;20045;-71
2023/02/05 08:22:41;;;;;;;23.08;3.28;;;;;;;6.05;91.53;104054.88;5038325;28;20041;-71
2023/02/05 08:25:10;;;;;;;23.42;3.03;;;;;;;6.06;91.53;104041.03;5039164;28;20079;-72
2023/02/05 08:27:37;;;;;;;25.90;4.28;;;;;;;6.07;91.17;104044.50;5035964;28;20099;-72
2023/02/05 08:30:04;;;;;;;18.88;3.53;;;;;;;6.08;91.41;104061.91;5043994;28;20044;-71
2023/02/05 08:32:30;;;;;;;25.75;3.45;;;;;;;6.07;91.11;104060.13;5043147;28;20075;-72
2023/02/05 08:34:55;;;;;;;20.80;2.88;;;;;;;6.07;91.16;104068.81;5038727;28;20033;-72
2023/02/05 08:37:21;;;;;;;21.25;4.00;;;;;;;6.08;91.42;104073.19;5040973;28;20041;-72
2023/02/05 08:39:48;;;;;;;22.40;3.25;;;;;;;6.08;91.64;104088.81;5051206;28;20352;-72
2023/02/05 08:42:13;;;;;;;25.40;3.85;;;;;;;6.08;90.97;104087.94;5038538;28;20038;-72
2023/02/05 08:44:39;;;;;;;29.90;4.07;;;;;;;6.08;90.83;104083.59;5042638;28;20456;-72
2023/02/05 08:47:04;;;;;;;23.58;3.72;;;;;;;6.10;90.97;104092.31;5038440;28;20037;-72
2023/02/05 08:49:29;;;;;;;35.13;4.35;;;;;;;6.10;91.18;104086.25;5035650;28;20048;-72
2023/02/05 08:51:55;;;;;;;25.95;3.40;;;;;;;6.11;91.50;104096.72;5038905;28;20068;-72
2023/02/05 08:54:20;;;;;;;34.03;3.88;;;;;;;6.13;91.27;104100.22;5035548;28;20052;-72
2023/02/05 08:56:48;;;;;;;35.50;5.13;;;;;;;6.15;91.21;104105.50;5018069;28;20033;-72
2023/02/05 08:59:14;;;;;;;31.25;4.50;;;;;;;6.16;90.78;104104.63;5035730;28;20039;-72
2023/02/05 09:01:41;;;;;;;26.77;3.92;;;;;;;6.15;90.70;104119.38;5042592;28;20128;-72
2023/02/05 09:04:11;;;;;;;33.40;4.43;;;;;;;6.16;90.44;104135.88;5035508;28;20111;-72
2023/02/05 09:06:36;;;;;;;28.80;4.72;;;;;;;6.15;90.03;104102.88;5048545;28;20029;-72
2023/02/05 09:09:02;;;;;;;27.42;4.25;;;;;;;6.16;90.21;104109.84;5017844;28;20348;-72
2023/02/05 09:11:29;;;;;;;29.33;4.10;;;;;;;6.18;90.37;104102.09;5035631;28;20045;-72
2023/02/05 09:13:55;;;;;;;23.75;3.53;;;;;;;6.18;90.48;104105.56;5035203;28;20033;-72
2023/02/05 09:16:20;;;;;;;30.08;4.55;;;;;;;6.19;90.34;104101.25;5047629;28;20297;-72
2023/02/05 09:18:46;;;;;;;24.35;3.30;;;;;;;6.21;90.60;104108.25;5036059;28;20333;-72
2023/02/05 09:21:12;;;;;;;27.80;3.90;;;;;;;6.22;90.61;104110.03;5040112;28;20065;-72
2023/02/05 09:23:37;;;;;;;37.33;5.22;;;;;;;6.23;90.77;104105.72;5033731;28;20041;-72
2023/02/05 09:26:03;;;;;;;25.77;5.30;;;;;;;6.22;90.11;104102.25;5034976;28;20043;-72
2023/02/05 09:28:29;;;;;;;20.15;3.97;;;;;;;6.22;89.75;104089.22;5033719;28;20217;-72
2023/02/05 09:30:54;;;;;;;30.55;3.72;;;;;;;6.23;89.54;104087.50;5034911;28;20883;-72
2023/02/05 09:33:19;;;;;;;23.20;4.32;;;;;;;6.23;89.66;104084.88;5033918;28;20069;-72
2023/02/05 09:35:45;;;;;;;24.13;4.07;;;;;;;6.22;89.36;104076.22;5035257;28;20041;-72
2023/02/05 09:38:14;;;;;;;31.48;4.18;;;;;;;6.24;89.69;104087.53;5031179;28;20025;-72
2023/02/05 09:40:58;;;;;;;41.70;4.57;;;;;;;6.23;89.82;104096.19;5031819;28;20065;-72
2023/02/05 09:44:00;;;;;;;39.92;4.93;;;;;;;6.25;90.05;104084.09;5029462;28;20303;-72
2023/02/05 09:46:43;;;;;;;32.65;4.25;;;;;;;6.26;90.05;104090.19;5032148;28;20090;-72
2023/02/05 09:49:13;;;;;;;39.47;4.82;;;;;;;6.27;90.30;104066.78;5031082;28;20060;-72
2023/02/05 09:51:49;;;;;;;35.75;4.65;;;;;;;6.30;90.69;104081.63;5030081;28;20063;-72
2023/02/05 09:54:17;;;;;;;33.00;4.82;;;;;;;6.31;90.63;104117.22;5030998;28;20026;-72
2023/02/05 09:56:44;;;;;;;29.35;3.13;;;;;;;6.33;90.25;104105.13;5032399;28;20256;-71
2023/02/05 09:59:16;;;;;;;35.25;4.47;;;;;;;6.38;90.60;104108.75;5012358;28;20042;-71
2023/02/05 10:01:53;;;;;;;38.03;3.95;;;;;;;6.41;90.24;104113.19;5017938;28;20044;-72
2023/02/05 10:04:19;;;;;;;31.63;3.72;;;;;;;6.42;89.20;104118.44;5029733;28;20334;-71
2023/02/05 10:07:17;;;;;;;28.67;4.10;;;;;;;6.45;89.61;104115.91;5032028;28;20029;-72
2023/02/05 10:10:06;;;;;;;26.63;3.97;;;;;;;6.48;89.03;104112.53;5032910;28;20112;-72
2023/02/05 10:12:50;;;;;;;;;;;;;;;6.48;89.31;104116.00;5033218;28;20103;-72
2023/02/05 10:15:36;;;;;;;27.55;4.07;;;;;;;6.50;88.67;104129.94;5033200;28;20358;-74
2023/02/05 10:18:41;;;;;;;27.95;3.85;;;;;;;6.49;88.41;104137.72;5036135;28;20056;-72
2023/02/05 10:21:43;;;;;;;33.85;4.30;;;;;;;6.49;88.01;104123.00;5031904;28;20318;-72
2023/02/05 10:24:36;;;;;;;29.70;3.88;;;;;;;6.50;88.33;104110.84;5033504;28;20052;-72
2023/02/05 10:27:18;;;;;;;34.28;3.92;;;;;;;6.51;88.36;104129.13;5027926;28;20029;-72
2023/02/05 10:29:43;;;;;;;29.42;4.15;;;;;;;6.52;88.28;104114.38;5013413;28;20099;-72
2023/02/05 10:32:21;;;;;;;22.23;3.83;;;;;;;6.51;87.89;104129.13;5030483;28;20037;-72
2023/02/05 10:35:08;;;;;;;28.38;2.95;;;;;;;6.50;87.61;104119.53;5028121;28;20061;-72
2023/02/05 10:37:50;;;;;;;23.98;4.13;;;;;;;6.48;87.64;104118.59;5037455;28;20083;-72
2023/02/05 10:40:22;;;;;;;29.90;4.25;;;;;;;6.50;88.03;104126.47;5033571;28;20041;-72
2023/02/05 10:43:02;;;;;;;42.95;7.43;;;;;;;6.49;88.25;104125.59;5035412;28;20037;-72
2023/02/05 10:45:29;;;;;;;29.42;3.83;;;;;;;6.51;88.47;104128.22;5033283;28;20224;-72
2023/02/05 10:48:22;;;;;;;23.45;3.67;;;;;;;6.50;88.77;104132.56;5029171;28;20048;-72
2023/02/05 10:50:59;;;;;;;22.38;3.45;;;;;;;6.53;89.29;104134.34;5030375;28;20048;-72
2023/02/05 10:53:26;;;;;;;28.85;4.25;;;;;;;6.53;89.29;104142.16;5042857;28;20024;-72
2023/02/05 10:55:52;;;;;;;22.90;4.18;;;;;;;6.53;88.34;104137.84;5038607;28;20043;-72
2023/02/05 10:58:39;;;;;;;37.85;5.45;;;;;;;6.56;88.17;104144.84;5013052;28;20029;-72
2023/02/05 11:01:14;;;;;;;40.92;4.68;;;;;;;6.56;88.02;104136.19;5030240;28;20821;-74
2023/02/05 11:03:46;;;;;;;27.42;4.28;;;;;;;6.56;87.76;104142.25;5033535;28;20029;-73
2023/02/05 11:06:12;;;;;;;31.58;3.58;;;;;;;6.58;87.51;104132.75;5033630;28;20211;-74
2023/02/05 11:08:43;;;;;;;26.88;3.53;;;;;;;6.60;87.93;104138.03;5031114;28;20041;-74
2023/02/05 11:11:20;;;;;;;37.35;3.83;;;;;;;6.61;87.76;104134.59;5038233;28;20259;-73
2023/02/05 11:14:09;;;;;;;23.08;3.70;;;;;;;6.63;87.59;104153.75;5035415;28;20043;-73
2023/02/05 11:16:44;;;;;;;28.55;3.85;;;;;;;6.64;86.66;104132.97;5031653;28;20591;-73
2023/02/05 11:19:27;;;;;;;19.88;3.20;;;;;;;6.64;86.09;104111.22;5032640;28;20375;-73
2023/02/05 11:21:58;;;;;;;19.13;3.08;;;;;;;6.63;86.14;104128.56;5041560;28;20064;-73
2023/02/05 11:24:26;;;;;;;25.00;3.33;;;;;;;6.64;85.86;104119.03;5036806;28;20034;-73
2023/02/05 11:27:14;;;;;;;28.47;3.90;;;;;;;6.64;86.38;104106.91;5047817;28;20040;-73
2023/02/05 11:29:41;;;;;;;24.10;3.25;;;;;;;6.65;85.81;104100.84;5029640;28;20041;-73
2023/02/05 11:32:35;;;;;;;24.67;3.30;;;;;;;6.64;85.27;104119.94;5035991;28;20172;-73
2023/02/05 11:35:21;;;;;;;33.30;3.97;;;;;;;6.65;84.64;104119.06;5035820;28;20830;-74
2023/02/05 11:38:09;;;;;;;26.65;3.38;;;;;;;6.67;85.10;104120.00;5031440;28;20068;-74
2023/02/05 11:40:35;;;;;;;28.08;3.58;;;;;;;6.67;85.16;104121.72;5012118;28;20044;-74
2023/02/05 11:43:32;;;;;;;28.20;4.40;;;;;;;6.69;85.71;104133.97;5036984;28;20356;-73
2023/02/05 11:46:00;;;;;;;19.38;3.63;;;;;;;6.68;84.50;104115.69;5034970;28;20076;-74